Church Fenton, United Kingdom
Current Conditions -  °F | °C
As of 7:50 PM on Monday 24 Nov 2014 (Local Time) from EGXU Reporting Station
Broken Clouds Broken Clouds  
Wind Chill: 39°   Ceiling: 22000
Heat Index: 39°   Visibility: 4mi
Dew Point: 39°   Wind: 3mph
Humidity: 100%   Direction: 160°SSE
Pressure: 30.3"   Gusts: NA
Location:  53.83°N, 1.2°W
Report Text: EGXU 241950Z AUTO 16003KT 6000 // SCT160/// BKN220/// 04/04 Q1026
Loading
Personal Weather Stations






























Interactive Weather Map New forecast layout! Learn more

10-Day Weather Forecast

Advertisements
Track Severe Weather on mobile